sensor_id;sensor_type;location;lat;lon;timestamp;temperature;humidity
15906;DHT22;8051;50.820;4.884;2022-12-07T00:01:53;4.30;99.90
15906;DHT22;8051;50.820;4.884;2022-12-07T00:04:20;4.30;99.90
15906;DHT22;8051;50.820;4.884;2022-12-07T00:06:52;4.30;99.90
15906;DHT22;8051;50.820;4.884;2022-12-07T00:09:20;4.30;99.90
15906;DHT22;8051;50.820;4.884;2022-12-07T00:11:49;4.20;99.90
15906;DHT22;8051;50.820;4.884;2022-12-07T00:14:17;4.20;99.90
15906;DHT22;8051;50.820;4.884;2022-12-07T00:16:45;4.10;99.90
15906;DHT22;8051;50.820;4.884;2022-12-07T00:19:13;4.00;99.90
15906;DHT22;8051;50.820;4.884;2022-12-07T00:21:41;4.00;99.90
15906;DHT22;8051;50.820;4.884;2022-12-07T00:24:11;3.90;99.90
15906;DHT22;8051;50.820;4.884;2022-12-07T00:26:40;3.90;99.90
15906;DHT22;8051;50.820;4.884;2022-12-07T00:29:13;3.80;99.90
15906;DHT22;8051;50.820;4.884;2022-12-07T00:31:41;3.70;99.90
15906;DHT22;8051;50.820;4.884;2022-12-07T00:34:13;3.70;99.90
15906;DHT22;8051;50.820;4.884;2022-12-07T00:36:40;3.60;99.90
15906;DHT22;8051;50.820;4.884;2022-12-07T00:39:09;3.50;99.90
15906;DHT22;8051;50.820;4.884;2022-12-07T00:41:37;3.50;99.90
15906;DHT22;8051;50.820;4.884;2022-12-07T00:44:04;3.50;99.90
15906;DHT22;8051;50.820;4.884;2022-12-07T00:46:32;3.50;99.90
15906;DHT22;8051;50.820;4.884;2022-12-07T00:48:59;3.60;99.90
15906;DHT22;8051;50.820;4.884;2022-12-07T00:51:27;3.70;99.90
15906;DHT22;8051;50.820;4.884;2022-12-07T00:53:54;3.70;99.90
15906;DHT22;8051;50.820;4.884;2022-12-07T00:56:25;3.70;99.90
15906;DHT22;8051;50.820;4.884;2022-12-07T00:58:55;3.80;99.90
15906;DHT22;8051;50.820;4.884;2022-12-07T01:01:23;3.80;99.90
15906;DHT22;8051;50.820;4.884;2022-12-07T01:03:51;3.80;99.90
15906;DHT22;8051;50.820;4.884;2022-12-07T01:06:20;3.80;99.90
15906;DHT22;8051;50.820;4.884;2022-12-07T01:08:48;3.80;99.90
15906;DHT22;8051;50.820;4.884;2022-12-07T01:11:18;3.80;99.90
15906;DHT22;8051;50.820;4.884;2022-12-07T01:13:49;3.80;99.90
15906;DHT22;8051;50.820;4.884;2022-12-07T01:16:17;3.80;99.90
15906;DHT22;8051;50.820;4.884;2022-12-07T01:18:46;3.90;99.90
15906;DHT22;8051;50.820;4.884;2022-12-07T01:21:16;3.90;99.90
15906;DHT22;8051;50.820;4.884;2022-12-07T01:23:44;4.00;99.90
15906;DHT22;8051;50.820;4.884;2022-12-07T01:26:14;4.00;99.90
15906;DHT22;8051;50.820;4.884;2022-12-07T01:28:42;4.00;99.90
15906;DHT22;8051;50.820;4.884;2022-12-07T01:31:13;4.00;99.90
15906;DHT22;8051;50.820;4.884;2022-12-07T01:33:43;4.00;99.90
15906;DHT22;8051;50.820;4.884;2022-12-07T01:36:15;4.10;99.90
15906;DHT22;8051;50.820;4.884;2022-12-07T01:38:44;4.00;99.90
15906;DHT22;8051;50.820;4.884;2022-12-07T01:41:13;4.00;99.90
15906;DHT22;8051;50.820;4.884;2022-12-07T01:46:53;4.00;99.90
15906;DHT22;8051;50.820;4.884;2022-12-07T01:49:31;4.10;99.90
15906;DHT22;8051;50.820;4.884;2022-12-07T01:52:10;4.00;99.90
15906;DHT22;8051;50.820;4.884;2022-12-07T01:54:41;4.00;99.90
15906;DHT22;8051;50.820;4.884;2022-12-07T01:57:09;3.90;99.90
15906;DHT22;8051;50.820;4.884;2022-12-07T01:59:36;3.80;99.90
15906;DHT22;8051;50.820;4.884;2022-12-07T02:02:10;3.70;99.90
15906;DHT22;8051;50.820;4.884;2022-12-07T02:04:39;3.60;99.90
15906;DHT22;8051;50.820;4.884;2022-12-07T02:07:07;3.60;99.90
15906;DHT22;8051;50.820;4.884;2022-12-07T02:09:34;3.50;99.90
15906;DHT22;8051;50.820;4.884;2022-12-07T02:12:02;3.50;99.90
15906;DHT22;8051;50.820;4.884;2022-12-07T02:14:31;3.50;99.90
15906;DHT22;8051;50.820;4.884;2022-12-07T02:17:08;3.60;99.90
15906;DHT22;8051;50.820;4.884;2022-12-07T02:20:13;3.60;99.90
15906;DHT22;8051;50.820;4.884;2022-12-07T02:22:58;3.60;99.90
15906;DHT22;8051;50.820;4.884;2022-12-07T02:25:39;3.70;99.90
15906;DHT22;8051;50.820;4.884;2022-12-07T02:28:21;3.70;99.90
15906;DHT22;8051;50.820;4.884;2022-12-07T02:30:55;3.70;99.90
15906;DHT22;8051;50.820;4.884;2022-12-07T02:33:27;3.70;99.90
15906;DHT22;8051;50.820;4.884;2022-12-07T02:36:00;3.70;99.90
15906;DHT22;8051;50.820;4.884;2022-12-07T02:38:35;3.70;99.90
15906;DHT22;8051;50.820;4.884;2022-12-07T02:41:07;3.60;99.90
15906;DHT22;8051;50.820;4.884;2022-12-07T02:43:40;3.60;99.90
15906;DHT22;8051;50.820;4.884;2022-12-07T02:46:14;3.60;99.90
15906;DHT22;8051;50.820;4.884;2022-12-07T02:48:43;3.60;99.90
15906;DHT22;8051;50.820;4.884;2022-12-07T02:51:11;3.60;99.90
15906;DHT22;8051;50.820;4.884;2022-12-07T02:53:40;3.60;99.90
15906;DHT22;8051;50.820;4.884;2022-12-07T02:56:13;3.60;99.90
15906;DHT22;8051;50.820;4.884;2022-12-07T02:58:50;3.60;99.90
15906;DHT22;8051;50.820;4.884;2022-12-07T03:01:30;3.70;99.90
15906;DHT22;8051;50.820;4.884;2022-12-07T03:04:06;3.70;99.90
15906;DHT22;8051;50.820;4.884;2022-12-07T03:06:40;3.70;99.90
15906;DHT22;8051;50.820;4.884;2022-12-07T03:09:13;3.70;99.90
15906;DHT22;8051;50.820;4.884;2022-12-07T03:11:45;3.70;99.90
15906;DHT22;8051;50.820;4.884;2022-12-07T03:14:17;3.70;99.90
15906;DHT22;8051;50.820;4.884;2022-12-07T03:16:50;3.70;99.90
15906;DHT22;8051;50.820;4.884;2022-12-07T03:19:21;3.70;99.90
15906;DHT22;8051;50.820;4.884;2022-12-07T03:21:53;3.70;99.90
15906;DHT22;8051;50.820;4.884;2022-12-07T03:24:26;3.70;99.90
15906;DHT22;8051;50.820;4.884;2022-12-07T03:26:58;3.70;99.90
15906;DHT22;8051;50.820;4.884;2022-12-07T03:29:29;3.70;99.90
15906;DHT22;8051;50.820;4.884;2022-12-07T03:32:04;3.70;99.90
15906;DHT22;8051;50.820;4.884;2022-12-07T03:34:36;3.70;99.90
15906;DHT22;8051;50.820;4.884;2022-12-07T03:37:07;3.70;99.90
15906;DHT22;8051;50.820;4.884;2022-12-07T03:39:39;3.60;99.90
15906;DHT22;8051;50.820;4.884;2022-12-07T03:42:09;3.60;99.90
15906;DHT22;8051;50.820;4.884;2022-12-07T03:44:38;3.60;99.90
15906;DHT22;8051;50.820;4.884;2022-12-07T03:47:13;3.60;99.90
15906;DHT22;8051;50.820;4.884;2022-12-07T03:49:46;3.60;99.90
15906;DHT22;8051;50.820;4.884;2022-12-07T03:52:21;3.60;99.90
15906;DHT22;8051;50.820;4.884;2022-12-07T03:54:56;3.50;99.90
15906;DHT22;8051;50.820;4.884;2022-12-07T03:57:26;3.40;99.90
15906;DHT22;8051;50.820;4.884;2022-12-07T03:59:55;3.40;99.90
15906;DHT22;8051;50.820;4.884;2022-12-07T04:02:26;3.40;99.90
15906;DHT22;8051;50.820;4.884;2022-12-07T04:04:54;3.40;99.90
15906;DHT22;8051;50.820;4.884;2022-12-07T04:07:22;3.40;99.90
15906;DHT22;8051;50.820;4.884;2022-12-07T04:09:50;3.40;99.90
15906;DHT22;8051;50.820;4.884;2022-12-07T04:12:17;3.30;99.90
15906;DHT22;8051;50.820;4.884;2022-12-07T04:14:45;3.40;99.90
15906;DHT22;8051;50.820;4.884;2022-12-07T04:17:12;3.40;99.90
15906;DHT22;8051;50.820;4.884;2022-12-07T04:19:41;3.50;99.90
15906;DHT22;8051;50.820;4.884;2022-12-07T04:22:09;3.50;99.90
15906;DHT22;8051;50.820;4.884;2022-12-07T04:24:36;3.50;99.90
15906;DHT22;8051;50.820;4.884;2022-12-07T04:27:04;3.50;99.90
15906;DHT22;8051;50.820;4.884;2022-12-07T04:29:31;3.50;99.90
15906;DHT22;8051;50.820;4.884;2022-12-07T04:31:59;3.50;99.90
15906;DHT22;8051;50.820;4.884;2022-12-07T04:34:26;3.50;99.90
15906;DHT22;8051;50.820;4.884;2022-12-07T04:36:55;3.50;99.90
15906;DHT22;8051;50.820;4.884;2022-12-07T04:39:25;3.40;99.90
15906;DHT22;8051;50.820;4.884;2022-12-07T04:41:53;3.30;99.90
15906;DHT22;8051;50.820;4.884;2022-12-07T04:44:21;3.30;99.90
15906;DHT22;8051;50.820;4.884;2022-12-07T04:46:49;3.30;99.90
15906;DHT22;8051;50.820;4.884;2022-12-07T04:49:17;3.20;99.90
15906;DHT22;8051;50.820;4.884;2022-12-07T04:51:45;3.20;99.90
15906;DHT22;8051;50.820;4.884;2022-12-07T04:54:15;3.10;99.90
15906;DHT22;8051;50.820;4.884;2022-12-07T04:56:43;3.10;99.90
15906;DHT22;8051;50.820;4.884;2022-12-07T04:59:11;3.00;99.90
15906;DHT22;8051;50.820;4.884;2022-12-07T05:01:39;2.90;99.90
15906;DHT22;8051;50.820;4.884;2022-12-07T05:04:06;2.90;99.90
15906;DHT22;8051;50.820;4.884;2022-12-07T05:06:34;2.80;99.90
15906;DHT22;8051;50.820;4.884;2022-12-07T05:09:03;2.90;99.90
15906;DHT22;8051;50.820;4.884;2022-12-07T05:11:32;3.00;99.90
15906;DHT22;8051;50.820;4.884;2022-12-07T05:14:09;3.00;99.90
15906;DHT22;8051;50.820;4.884;2022-12-07T05:16:37;3.10;99.90
15906;DHT22;8051;50.820;4.884;2022-12-07T05:19:04;3.00;99.90
15906;DHT22;8051;50.820;4.884;2022-12-07T05:21:32;3.00;99.90
15906;DHT22;8051;50.820;4.884;2022-12-07T05:23:59;3.00;99.90
15906;DHT22;8051;50.820;4.884;2022-12-07T05:26:27;2.90;99.90
15906;DHT22;8051;50.820;4.884;2022-12-07T05:28:57;2.80;99.90
15906;DHT22;8051;50.820;4.884;2022-12-07T05:31:25;2.80;99.90
15906;DHT22;8051;50.820;4.884;2022-12-07T05:33:53;2.70;99.90
15906;DHT22;8051;50.820;4.884;2022-12-07T05:36:21;2.70;99.90
15906;DHT22;8051;50.820;4.884;2022-12-07T05:38:49;2.60;99.90
15906;DHT22;8051;50.820;4.884;2022-12-07T05:41:18;2.60;99.90
15906;DHT22;8051;50.820;4.884;2022-12-07T05:44:05;2.70;99.90
15906;DHT22;8051;50.820;4.884;2022-12-07T05:46:33;2.80;99.90
15906;DHT22;8051;50.820;4.884;2022-12-07T05:49:00;2.80;99.90
15906;DHT22;8051;50.820;4.884;2022-12-07T05:51:28;2.80;99.90
15906;DHT22;8051;50.820;4.884;2022-12-07T05:53:56;2.90;99.90
15906;DHT22;8051;50.820;4.884;2022-12-07T05:56:23;3.00;99.90
15906;DHT22;8051;50.820;4.884;2022-12-07T05:58:52;3.10;99.90
15906;DHT22;8051;50.820;4.884;2022-12-07T06:01:38;3.10;99.90
15906;DHT22;8051;50.820;4.884;2022-12-07T06:04:06;3.20;99.90
15906;DHT22;8051;50.820;4.884;2022-12-07T06:06:33;3.10;99.90
15906;DHT22;8051;50.820;4.884;2022-12-07T06:09:01;3.10;99.90
15906;DHT22;8051;50.820;4.884;2022-12-07T06:11:28;3.10;99.90
15906;DHT22;8051;50.820;4.884;2022-12-07T06:14:13;3.10;99.90
15906;DHT22;8051;50.820;4.884;2022-12-07T06:16:42;3.20;99.90
15906;DHT22;8051;50.820;4.884;2022-12-07T06:19:10;3.20;99.90
15906;DHT22;8051;50.820;4.884;2022-12-07T06:21:37;3.20;99.90
15906;DHT22;8051;50.820;4.884;2022-12-07T06:24:05;3.10;99.90
15906;DHT22;8051;50.820;4.884;2022-12-07T06:26:33;3.10;99.90
15906;DHT22;8051;50.820;4.884;2022-12-07T06:29:00;3.10;99.90
15906;DHT22;8051;50.820;4.884;2022-12-07T06:31:27;3.10;99.90
15906;DHT22;8051;50.820;4.884;2022-12-07T06:33:59;3.10;99.90
15906;DHT22;8051;50.820;4.884;2022-12-07T06:36:27;3.20;99.90
15906;DHT22;8051;50.820;4.884;2022-12-07T06:38:54;3.20;99.90
15906;DHT22;8051;50.820;4.884;2022-12-07T06:41:22;3.10;99.90
15906;DHT22;8051;50.820;4.884;2022-12-07T06:43:50;3.10;99.90
15906;DHT22;8051;50.820;4.884;2022-12-07T06:46:18;3.10;99.90
15906;DHT22;8051;50.820;4.884;2022-12-07T06:48:45;3.00;99.90
15906;DHT22;8051;50.820;4.884;2022-12-07T06:51:14;3.10;99.90
15906;DHT22;8051;50.820;4.884;2022-12-07T06:53:42;3.10;99.90
15906;DHT22;8051;50.820;4.884;2022-12-07T06:56:09;3.10;99.90
15906;DHT22;8051;50.820;4.884;2022-12-07T06:58:37;3.10;99.90
15906;DHT22;8051;50.820;4.884;2022-12-07T07:01:09;3.10;99.90
15906;DHT22;8051;50.820;4.884;2022-12-07T07:03:36;3.00;99.90
15906;DHT22;8051;50.820;4.884;2022-12-07T07:06:05;3.00;99.90
15906;DHT22;8051;50.820;4.884;2022-12-07T07:08:34;2.90;99.90
15906;DHT22;8051;50.820;4.884;2022-12-07T07:11:02;2.90;99.90
15906;DHT22;8051;50.820;4.884;2022-12-07T07:13:30;3.00;99.90
15906;DHT22;8051;50.820;4.884;2022-12-07T07:15:57;3.00;99.90
15906;DHT22;8051;50.820;4.884;2022-12-07T07:18:25;3.00;99.90
15906;DHT22;8051;50.820;4.884;2022-12-07T07:20:53;3.00;99.90
15906;DHT22;8051;50.820;4.884;2022-12-07T07:23:21;3.00;99.90
15906;DHT22;8051;50.820;4.884;2022-12-07T07:25:50;3.00;99.90
15906;DHT22;8051;50.820;4.884;2022-12-07T07:28:17;3.00;99.90
15906;DHT22;8051;50.820;4.884;2022-12-07T07:30:45;3.00;99.90
15906;DHT22;8051;50.820;4.884;2022-12-07T07:33:12;3.00;99.90
15906;DHT22;8051;50.820;4.884;2022-12-07T07:35:39;3.00;99.90
15906;DHT22;8051;50.820;4.884;2022-12-07T07:38:07;3.00;99.90
15906;DHT22;8051;50.820;4.884;2022-12-07T07:40:35;3.00;99.90
15906;DHT22;8051;50.820;4.884;2022-12-07T07:43:04;3.00;99.90
15906;DHT22;8051;50.820;4.884;2022-12-07T07:45:31;3.10;99.90
15906;DHT22;8051;50.820;4.884;2022-12-07T07:47:58;3.10;99.90
15906;DHT22;8051;50.820;4.884;2022-12-07T07:50:26;3.10;99.90
15906;DHT22;8051;50.820;4.884;2022-12-07T07:52:53;3.10;99.90
15906;DHT22;8051;50.820;4.884;2022-12-07T07:55:21;3.10;99.90
15906;DHT22;8051;50.820;4.884;2022-12-07T07:57:48;3.10;99.90
15906;DHT22;8051;50.820;4.884;2022-12-07T08:00:18;3.10;99.90
15906;DHT22;8051;50.820;4.884;2022-12-07T08:02:46;3.10;99.90
15906;DHT22;8051;50.820;4.884;2022-12-07T08:05:14;3.10;99.90
15906;DHT22;8051;50.820;4.884;2022-12-07T08:07:41;3.00;99.90
15906;DHT22;8051;50.820;4.884;2022-12-07T08:10:11;3.00;99.90
15906;DHT22;8051;50.820;4.884;2022-12-07T08:12:40;3.00;99.90
15906;DHT22;8051;50.820;4.884;2022-12-07T08:15:25;2.90;99.90
15906;DHT22;8051;50.820;4.884;2022-12-07T08:17:52;2.90;99.90
15906;DHT22;8051;50.820;4.884;2022-12-07T08:20:20;2.90;99.90
15906;DHT22;8051;50.820;4.884;2022-12-07T08:22:47;2.90;99.90
15906;DHT22;8051;50.820;4.884;2022-12-07T08:25:15;2.90;99.90
15906;DHT22;8051;50.820;4.884;2022-12-07T08:27:42;2.90;99.90
15906;DHT22;8051;50.820;4.884;2022-12-07T08:30:10;2.90;99.90
15906;DHT22;8051;50.820;4.884;2022-12-07T08:32:39;2.90;99.90
15906;DHT22;8051;50.820;4.884;2022-12-07T08:35:08;2.80;99.90
15906;DHT22;8051;50.820;4.884;2022-12-07T08:37:36;2.80;99.90
15906;DHT22;8051;50.820;4.884;2022-12-07T08:40:05;2.90;99.90
15906;DHT22;8051;50.820;4.884;2022-12-07T08:42:32;2.80;99.90
15906;DHT22;8051;50.820;4.884;2022-12-07T08:45:07;2.80;99.90
15906;DHT22;8051;50.820;4.884;2022-12-07T08:47:35;2.80;99.90
15906;DHT22;8051;50.820;4.884;2022-12-07T08:50:07;2.80;99.90
15906;DHT22;8051;50.820;4.884;2022-12-07T08:52:37;2.90;99.90
15906;DHT22;8051;50.820;4.884;2022-12-07T08:55:06;3.00;99.90
15906;DHT22;8051;50.820;4.884;2022-12-07T08:57:35;3.10;99.90
15906;DHT22;8051;50.820;4.884;2022-12-07T09:00:04;3.20;99.90
15906;DHT22;8051;50.820;4.884;2022-12-07T09:02:31;3.30;99.90
15906;DHT22;8051;50.820;4.884;2022-12-07T09:04:59;3.40;99.90
15906;DHT22;8051;50.820;4.884;2022-12-07T09:07:29;3.60;99.90
15906;DHT22;8051;50.820;4.884;2022-12-07T09:09:57;3.70;99.90
15906;DHT22;8051;50.820;4.884;2022-12-07T09:12:25;3.70;99.90
15906;DHT22;8051;50.820;4.884;2022-12-07T09:14:52;3.70;99.90
15906;DHT22;8051;50.820;4.884;2022-12-07T09:17:20;3.70;99.90
15906;DHT22;8051;50.820;4.884;2022-12-07T09:19:47;3.70;99.90
15906;DHT22;8051;50.820;4.884;2022-12-07T09:22:15;3.60;99.90
15906;DHT22;8051;50.820;4.884;2022-12-07T09:24:44;3.70;99.90
15906;DHT22;8051;50.820;4.884;2022-12-07T09:27:11;3.70;99.90
15906;DHT22;8051;50.820;4.884;2022-12-07T09:29:39;3.80;99.90
15906;DHT22;8051;50.820;4.884;2022-12-07T09:32:06;3.80;99.90
15906;DHT22;8051;50.820;4.884;2022-12-07T09:34:34;3.80;99.90
15906;DHT22;8051;50.820;4.884;2022-12-07T09:37:01;3.80;99.90
15906;DHT22;8051;50.820;4.884;2022-12-07T09:39:30;3.80;99.90
15906;DHT22;8051;50.820;4.884;2022-12-07T09:41:59;3.90;99.90
15906;DHT22;8051;50.820;4.884;2022-12-07T09:44:30;4.10;99.90
15906;DHT22;8051;50.820;4.884;2022-12-07T09:46:57;4.20;99.90
15906;DHT22;8051;50.820;4.884;2022-12-07T09:49:28;4.40;99.90
15906;DHT22;8051;50.820;4.884;2022-12-07T09:52:02;4.50;99.90
15906;DHT22;8051;50.820;4.884;2022-12-07T09:54:30;4.60;99.90
15906;DHT22;8051;50.820;4.884;2022-12-07T09:57:00;4.60;99.90
15906;DHT22;8051;50.820;4.884;2022-12-07T09:59:27;4.70;99.90
15906;DHT22;8051;50.820;4.884;2022-12-07T10:01:55;4.80;99.90
15906;DHT22;8051;50.820;4.884;2022-12-07T10:04:24;4.80;99.90
15906;DHT22;8051;50.820;4.884;2022-12-07T10:06:52;4.90;99.90
15906;DHT22;8051;50.820;4.884;2022-12-07T10:09:21;5.00;99.90
15906;DHT22;8051;50.820;4.884;2022-12-07T10:12:06;4.90;99.90
15906;DHT22;8051;50.820;4.884;2022-12-07T10:14:36;4.80;99.90
15906;DHT22;8051;50.820;4.884;2022-12-07T10:17:29;4.80;99.90
15906;DHT22;8051;50.820;4.884;2022-12-07T10:20:16;4.90;99.90
15906;DHT22;8051;50.820;4.884;2022-12-07T10:23:00;5.00;99.90
15906;DHT22;8051;50.820;4.884;2022-12-07T10:25:31;5.20;99.90
15906;DHT22;8051;50.820;4.884;2022-12-07T10:28:15;5.50;99.90
15906;DHT22;8051;50.820;4.884;2022-12-07T10:30:51;5.70;99.90
15906;DHT22;8051;50.820;4.884;2022-12-07T10:33:31;5.90;99.90
15906;DHT22;8051;50.820;4.884;2022-12-07T10:35:59;5.90;99.90
15906;DHT22;8051;50.820;4.884;2022-12-07T10:38:28;5.90;99.90
15906;DHT22;8051;50.820;4.884;2022-12-07T10:41:05;6.00;99.90
15906;DHT22;8051;50.820;4.884;2022-12-07T10:43:35;6.10;99.90
15906;DHT22;8051;50.820;4.884;2022-12-07T10:46:36;6.10;99.90
15906;DHT22;8051;50.820;4.884;2022-12-07T10:49:28;6.00;99.90
15906;DHT22;8051;50.820;4.884;2022-12-07T10:52:03;5.90;99.90
15906;DHT22;8051;50.820;4.884;2022-12-07T10:54:41;6.00;99.90
15906;DHT22;8051;50.820;4.884;2022-12-07T10:57:22;6.10;99.90
15906;DHT22;8051;50.820;4.884;2022-12-07T11:00:01;6.20;99.90
15906;DHT22;8051;50.820;4.884;2022-12-07T11:02:52;6.20;99.90
15906;DHT22;8051;50.820;4.884;2022-12-07T11:05:26;6.30;99.90
15906;DHT22;8051;50.820;4.884;2022-12-07T11:08:02;6.40;99.90
15906;DHT22;8051;50.820;4.884;2022-12-07T11:10:40;6.40;99.90
15906;DHT22;8051;50.820;4.884;2022-12-07T11:13:18;6.50;99.90
15906;DHT22;8051;50.820;4.884;2022-12-07T11:18:42;6.40;99.90
15906;DHT22;8051;50.820;4.884;2022-12-07T11:21:18;6.30;99.90
15906;DHT22;8051;50.820;4.884;2022-12-07T11:23:51;6.30;99.90
15906;DHT22;8051;50.820;4.884;2022-12-07T11:26:31;6.30;99.90
15906;DHT22;8051;50.820;4.884;2022-12-07T11:29:25;6.20;99.90
15906;DHT22;8051;50.820;4.884;2022-12-07T11:32:07;6.20;99.90
15906;DHT22;8051;50.820;4.884;2022-12-07T11:34:42;6.10;99.90
15906;DHT22;8051;50.820;4.884;2022-12-07T11:37:17;6.20;99.90
15906;DHT22;8051;50.820;4.884;2022-12-07T11:39:49;6.20;99.90
15906;DHT22;8051;50.820;4.884;2022-12-07T11:42:22;6.30;99.90
15906;DHT22;8051;50.820;4.884;2022-12-07T11:44:53;6.30;99.90
15906;DHT22;8051;50.820;4.884;2022-12-07T11:47:29;6.30;99.90
15906;DHT22;8051;50.820;4.884;2022-12-07T11:50:05;6.30;99.90
15906;DHT22;8051;50.820;4.884;2022-12-07T11:52:44;6.30;99.90
15906;DHT22;8051;50.820;4.884;2022-12-07T11:55:25;6.30;99.90
15906;DHT22;8051;50.820;4.884;2022-12-07T11:57:59;6.30;99.90
15906;DHT22;8051;50.820;4.884;2022-12-07T12:00:30;6.30;99.90
15906;DHT22;8051;50.820;4.884;2022-12-07T12:03:01;6.30;99.90
15906;DHT22;8051;50.820;4.884;2022-12-07T12:05:31;6.40;99.90
15906;DHT22;8051;50.820;4.884;2022-12-07T12:08:04;6.50;99.90
15906;DHT22;8051;50.820;4.884;2022-12-07T12:10:43;6.50;99.90
15906;DHT22;8051;50.820;4.884;2022-12-07T12:13:46;6.50;99.90
15906;DHT22;8051;50.820;4.884;2022-12-07T12:16:44;6.50;99.90
15906;DHT22;8051;50.820;4.884;2022-12-07T12:19:34;6.40;99.90
15906;DHT22;8051;50.820;4.884;2022-12-07T12:22:09;6.50;99.90
15906;DHT22;8051;50.820;4.884;2022-12-07T12:24:40;6.50;99.90
15906;DHT22;8051;50.820;4.884;2022-12-07T12:27:15;6.60;99.90
15906;DHT22;8051;50.820;4.884;2022-12-07T12:29:53;6.60;99.90
15906;DHT22;8051;50.820;4.884;2022-12-07T12:32:22;6.70;99.90
15906;DHT22;8051;50.820;4.884;2022-12-07T12:35:20;6.70;99.90
15906;DHT22;8051;50.820;4.884;2022-12-07T12:37:52;6.80;99.90
15906;DHT22;8051;50.820;4.884;2022-12-07T12:40:43;6.80;99.90
15906;DHT22;8051;50.820;4.884;2022-12-07T12:43:50;6.80;99.90
15906;DHT22;8051;50.820;4.884;2022-12-07T12:46:50;6.70;99.90
15906;DHT22;8051;50.820;4.884;2022-12-07T12:49:42;6.70;99.90
15906;DHT22;8051;50.820;4.884;2022-12-07T12:58:29;6.80;99.90
15906;DHT22;8051;50.820;4.884;2022-12-07T13:03:58;6.80;99.90
15906;DHT22;8051;50.820;4.884;2022-12-07T13:06:35;6.80;99.90
15906;DHT22;8051;50.820;4.884;2022-12-07T13:09:18;6.80;99.90
15906;DHT22;8051;50.820;4.884;2022-12-07T13:11:54;6.60;99.90
15906;DHT22;8051;50.820;4.884;2022-12-07T13:14:51;6.50;99.90
15906;DHT22;8051;50.820;4.884;2022-12-07T13:20:44;6.20;99.90
15906;DHT22;8051;50.820;4.884;2022-12-07T13:23:13;6.10;99.90
15906;DHT22;8051;50.820;4.884;2022-12-07T13:25:51;6.00;99.90
15906;DHT22;8051;50.820;4.884;2022-12-07T13:28:21;6.00;99.90
15906;DHT22;8051;50.820;4.884;2022-12-07T13:31:03;6.00;99.90
15906;DHT22;8051;50.820;4.884;2022-12-07T13:33:34;6.10;99.90
15906;DHT22;8051;50.820;4.884;2022-12-07T13:36:02;6.20;99.90
15906;DHT22;8051;50.820;4.884;2022-12-07T13:38:32;6.40;99.90
15906;DHT22;8051;50.820;4.884;2022-12-07T13:41:11;6.60;99.90
15906;DHT22;8051;50.820;4.884;2022-12-07T13:43:50;6.70;99.90
15906;DHT22;8051;50.820;4.884;2022-12-07T13:46:20;6.90;99.90
15906;DHT22;8051;50.820;4.884;2022-12-07T13:48:51;7.00;99.90
15906;DHT22;8051;50.820;4.884;2022-12-07T13:51:22;7.10;99.90
15906;DHT22;8051;50.820;4.884;2022-12-07T13:53:52;7.20;99.90
15906;DHT22;8051;50.820;4.884;2022-12-07T13:56:22;7.20;99.90
15906;DHT22;8051;50.820;4.884;2022-12-07T13:58:55;7.10;99.90
15906;DHT22;8051;50.820;4.884;2022-12-07T14:01:23;7.20;99.90
15906;DHT22;8051;50.820;4.884;2022-12-07T14:03:51;7.30;99.90
15906;DHT22;8051;50.820;4.884;2022-12-07T14:06:24;7.30;99.90
15906;DHT22;8051;50.820;4.884;2022-12-07T14:09:09;7.20;99.90
15906;DHT22;8051;50.820;4.884;2022-12-07T14:11:37;7.00;99.90
15906;DHT22;8051;50.820;4.884;2022-12-07T14:14:14;6.90;99.90
15906;DHT22;8051;50.820;4.884;2022-12-07T14:16:54;6.90;99.90
15906;DHT22;8051;50.820;4.884;2022-12-07T14:19:52;6.80;99.90
15906;DHT22;8051;50.820;4.884;2022-12-07T14:22:26;6.80;99.90
15906;DHT22;8051;50.820;4.884;2022-12-07T14:27:52;6.60;99.90
15906;DHT22;8051;50.820;4.884;2022-12-07T14:30:24;6.60;99.90
15906;DHT22;8051;50.820;4.884;2022-12-07T14:32:54;6.50;99.90
15906;DHT22;8051;50.820;4.884;2022-12-07T14:35:22;6.50;99.90
15906;DHT22;8051;50.820;4.884;2022-12-07T14:37:50;6.30;99.90
15906;DHT22;8051;50.820;4.884;2022-12-07T14:40:19;6.30;99.90
15906;DHT22;8051;50.820;4.884;2022-12-07T14:42:50;6.30;99.90
15906;DHT22;8051;50.820;4.884;2022-12-07T14:45:20;6.30;99.90
15906;DHT22;8051;50.820;4.884;2022-12-07T14:47:50;6.20;99.90
15906;DHT22;8051;50.820;4.884;2022-12-07T14:50:19;6.20;99.90
15906;DHT22;8051;50.820;4.884;2022-12-07T14:52:49;6.20;99.90
15906;DHT22;8051;50.820;4.884;2022-12-07T14:55:22;6.20;99.90
15906;DHT22;8051;50.820;4.884;2022-12-07T14:57:50;6.20;99.90
15906;DHT22;8051;50.820;4.884;2022-12-07T15:00:19;6.20;99.90
15906;DHT22;8051;50.820;4.884;2022-12-07T15:02:48;6.20;99.90
15906;DHT22;8051;50.820;4.884;2022-12-07T15:05:16;6.20;99.90
15906;DHT22;8051;50.820;4.884;2022-12-07T15:07:45;6.10;99.90
15906;DHT22;8051;50.820;4.884;2022-12-07T15:10:16;6.10;99.90
15906;DHT22;8051;50.820;4.884;2022-12-07T15:12:44;6.10;99.90
15906;DHT22;8051;50.820;4.884;2022-12-07T15:15:11;6.00;99.90
15906;DHT22;8051;50.820;4.884;2022-12-07T15:17:38;5.80;99.90
15906;DHT22;8051;50.820;4.884;2022-12-07T15:22:39;5.50;99.90
15906;DHT22;8051;50.820;4.884;2022-12-07T15:25:08;5.30;99.90
15906;DHT22;8051;50.820;4.884;2022-12-07T15:27:35;5.10;99.90
15906;DHT22;8051;50.820;4.884;2022-12-07T15:30:03;5.00;99.90
15906;DHT22;8051;50.820;4.884;2022-12-07T15:32:31;5.00;99.90
15906;DHT22;8051;50.820;4.884;2022-12-07T15:34:59;5.10;99.90
15906;DHT22;8051;50.820;4.884;2022-12-07T15:37:28;5.10;99.90
15906;DHT22;8051;50.820;4.884;2022-12-07T15:39:55;5.10;99.90
15906;DHT22;8051;50.820;4.884;2022-12-07T15:42:22;5.00;99.90
15906;DHT22;8051;50.820;4.884;2022-12-07T15:44:50;4.90;99.90
15906;DHT22;8051;50.820;4.884;2022-12-07T15:47:33;4.80;99.90
15906;DHT22;8051;50.820;4.884;2022-12-07T15:50:00;4.70;99.90
15906;DHT22;8051;50.820;4.884;2022-12-07T15:52:30;4.60;99.90
15906;DHT22;8051;50.820;4.884;2022-12-07T15:54:57;4.50;99.90
15906;DHT22;8051;50.820;4.884;2022-12-07T15:57:25;4.50;99.90
15906;DHT22;8051;50.820;4.884;2022-12-07T15:59:53;4.50;99.90
15906;DHT22;8051;50.820;4.884;2022-12-07T16:02:20;4.40;99.90
15906;DHT22;8051;50.820;4.884;2022-12-07T16:04:48;4.40;99.90
15906;DHT22;8051;50.820;4.884;2022-12-07T16:07:16;4.40;99.90
15906;DHT22;8051;50.820;4.884;2022-12-07T16:09:46;4.50;99.90
15906;DHT22;8051;50.820;4.884;2022-12-07T16:12:15;4.50;99.90
15906;DHT22;8051;50.820;4.884;2022-12-07T16:14:43;4.50;99.90
15906;DHT22;8051;50.820;4.884;2022-12-07T16:17:10;4.50;99.90
15906;DHT22;8051;50.820;4.884;2022-12-07T16:19:38;4.40;99.90
15906;DHT22;8051;50.820;4.884;2022-12-07T16:22:06;4.40;99.90
15906;DHT22;8051;50.820;4.884;2022-12-07T16:24:33;4.50;99.90
15906;DHT22;8051;50.820;4.884;2022-12-07T16:27:02;4.50;99.90
15906;DHT22;8051;50.820;4.884;2022-12-07T16:29:30;4.50;99.90
15906;DHT22;8051;50.820;4.884;2022-12-07T16:31:57;4.50;99.90
15906;DHT22;8051;50.820;4.884;2022-12-07T16:34:25;4.50;99.90
15906;DHT22;8051;50.820;4.884;2022-12-07T16:36:52;4.50;99.90
15906;DHT22;8051;50.820;4.884;2022-12-07T16:39:19;4.50;99.90
15906;DHT22;8051;50.820;4.884;2022-12-07T16:41:46;4.50;99.90
15906;DHT22;8051;50.820;4.884;2022-12-07T16:44:16;4.50;99.90
15906;DHT22;8051;50.820;4.884;2022-12-07T16:46:43;4.50;99.90
15906;DHT22;8051;50.820;4.884;2022-12-07T16:49:12;4.50;99.90
15906;DHT22;8051;50.820;4.884;2022-12-07T16:51:40;4.60;99.90
15906;DHT22;8051;50.820;4.884;2022-12-07T16:54:10;4.60;99.90